Terminal Aerodrome Forecast
Issued by NWS Upton, NY

Home | Current Version | Previous Version | Text Only | Print | Product List | Glossary On
Versions: 1 2 3 4 5 6 7 8 9 10 11 12 13 14 15 16 17 18 19 20 21 22 23 24 25 26 27 28 29 30 31 32 33 34 35 36 37 38 39 40 41 42 43 44 45 46 47 48 49 50
000
FTUS41 KOKX 171725
TAFBDR
TAF
KBDR 171725Z 1718/1818 20011KT P6SM FEW040 SCT120 BKN250
     FM171900 21013G17KT P6SM VCTS SCT050CB BKN080
     FM180000 22006KT 6SM -SHRA FEW025 BKN040
      TEMPO 1800/1804 3SM +TSRA BR BKN025CB
     FM180400 04005KT 5SM -SHRA BR BKN020 OVC040
     FM180800 06005KT 3SM -SHRA BR OVC008
     FM181000 09006KT 5SM -SHRA BR OVC008
     FM181200 09004KT 2SM -SHRA BR OVC007
     FM181700 10005KT 2SM -SHRA BR OVC015=

USA.gov is the U.S. government's official web portal to all federal, state and local government web resources and services.